sensor_id;sensor_type;location;lat;lon;timestamp;temperature;humidity
75161;DHT22;67232;50.096;8.716;2023-07-13T00:00:35;24.40;49.70
75161;DHT22;67232;50.096;8.716;2023-07-13T00:03:01;24.40;49.50
75161;DHT22;67232;50.096;8.716;2023-07-13T00:05:27;24.40;49.80
75161;DHT22;67232;50.096;8.716;2023-07-13T00:07:55;24.30;49.60
75161;DHT22;67232;50.096;8.716;2023-07-13T00:10:21;24.30;50.10
75161;DHT22;67232;50.096;8.716;2023-07-13T00:12:49;24.30;50.10
75161;DHT22;67232;50.096;8.716;2023-07-13T00:15:18;24.30;49.90
75161;DHT22;67232;50.096;8.716;2023-07-13T00:17:49;24.30;49.80
75161;DHT22;67232;50.096;8.716;2023-07-13T00:20:15;24.40;49.70
75161;DHT22;67232;50.096;8.716;2023-07-13T00:22:43;24.40;49.80
75161;DHT22;67232;50.096;8.716;2023-07-13T00:25:12;24.40;49.60
75161;DHT22;67232;50.096;8.716;2023-07-13T00:27:37;24.50;49.30
75161;DHT22;67232;50.096;8.716;2023-07-13T00:30:03;24.50;48.70
75161;DHT22;67232;50.096;8.716;2023-07-13T00:32:29;24.50;49.00
75161;DHT22;67232;50.096;8.716;2023-07-13T00:34:57;24.40;49.50
75161;DHT22;67232;50.096;8.716;2023-07-13T00:37:25;24.40;49.50
75161;DHT22;67232;50.096;8.716;2023-07-13T00:39:55;24.40;49.60
75161;DHT22;67232;50.096;8.716;2023-07-13T00:42:21;24.40;49.50
75161;DHT22;67232;50.096;8.716;2023-07-13T00:46:16;24.30;49.90
75161;DHT22;67232;50.096;8.716;2023-07-13T00:47:55;24.30;49.80
75161;DHT22;67232;50.096;8.716;2023-07-13T00:50:24;24.30;49.90
75161;DHT22;67232;50.096;8.716;2023-07-13T00:52:53;24.20;50.00
75161;DHT22;67232;50.096;8.716;2023-07-13T00:55:21;24.10;49.90
75161;DHT22;67232;50.096;8.716;2023-07-13T00:57:47;24.10;49.60
75161;DHT22;67232;50.096;8.716;2023-07-13T01:00:15;24.10;49.90
75161;DHT22;67232;50.096;8.716;2023-07-13T01:02:45;23.90;49.80
75161;DHT22;67232;50.096;8.716;2023-07-13T01:05:13;23.90;50.30
75161;DHT22;67232;50.096;8.716;2023-07-13T01:07:44;23.80;50.30
75161;DHT22;67232;50.096;8.716;2023-07-13T01:10:12;23.70;50.60
75161;DHT22;67232;50.096;8.716;2023-07-13T01:12:38;23.60;50.70
75161;DHT22;67232;50.096;8.716;2023-07-13T01:15:05;23.60;50.70
75161;DHT22;67232;50.096;8.716;2023-07-13T01:17:31;23.60;50.90
75161;DHT22;67232;50.096;8.716;2023-07-13T01:19:58;23.50;51.40
75161;DHT22;67232;50.096;8.716;2023-07-13T01:22:24;23.50;51.50
75161;DHT22;67232;50.096;8.716;2023-07-13T01:24:52;23.40;51.90
75161;DHT22;67232;50.096;8.716;2023-07-13T01:27:23;23.30;52.10
75161;DHT22;67232;50.096;8.716;2023-07-13T01:29:51;23.30;51.80
75161;DHT22;67232;50.096;8.716;2023-07-13T01:32:20;23.30;52.00
75161;DHT22;67232;50.096;8.716;2023-07-13T01:34:51;23.20;52.20
75161;DHT22;67232;50.096;8.716;2023-07-13T01:37:22;23.20;52.60
75161;DHT22;67232;50.096;8.716;2023-07-13T01:39:48;23.10;52.70
75161;DHT22;67232;50.096;8.716;2023-07-13T01:42:14;23.20;52.70
75161;DHT22;67232;50.096;8.716;2023-07-13T01:44:42;23.10;52.90
75161;DHT22;67232;50.096;8.716;2023-07-13T01:47:10;23.10;52.70
75161;DHT22;67232;50.096;8.716;2023-07-13T01:49:35;23.10;52.80
75161;DHT22;67232;50.096;8.716;2023-07-13T01:52:01;23.00;53.00
75161;DHT22;67232;50.096;8.716;2023-07-13T01:54:29;23.00;53.30
75161;DHT22;67232;50.096;8.716;2023-07-13T01:56:54;23.00;52.70
75161;DHT22;67232;50.096;8.716;2023-07-13T01:59:19;23.00;52.90
75161;DHT22;67232;50.096;8.716;2023-07-13T02:01:47;23.00;52.80
75161;DHT22;67232;50.096;8.716;2023-07-13T02:04:13;23.00;52.80
75161;DHT22;67232;50.096;8.716;2023-07-13T02:06:41;22.90;52.90
75161;DHT22;67232;50.096;8.716;2023-07-13T02:09:09;22.90;53.00
75161;DHT22;67232;50.096;8.716;2023-07-13T02:11:35;23.00;53.00
75161;DHT22;67232;50.096;8.716;2023-07-13T02:14:01;22.90;53.10
75161;DHT22;67232;50.096;8.716;2023-07-13T02:16:28;22.80;52.90
75161;DHT22;67232;50.096;8.716;2023-07-13T02:18:53;22.80;53.40
75161;DHT22;67232;50.096;8.716;2023-07-13T02:21:20;22.90;53.00
75161;DHT22;67232;50.096;8.716;2023-07-13T02:23:45;22.80;53.20
75161;DHT22;67232;50.096;8.716;2023-07-13T02:26:11;22.80;53.30
75161;DHT22;67232;50.096;8.716;2023-07-13T02:28:36;22.80;53.30
75161;DHT22;67232;50.096;8.716;2023-07-13T02:31:08;22.80;53.30
75161;DHT22;67232;50.096;8.716;2023-07-13T02:33:36;22.70;53.20
75161;DHT22;67232;50.096;8.716;2023-07-13T02:36:01;22.70;53.70
75161;DHT22;67232;50.096;8.716;2023-07-13T02:38:27;22.70;53.60
75161;DHT22;67232;50.096;8.716;2023-07-13T02:40:55;22.70;53.00
75161;DHT22;67232;50.096;8.716;2023-07-13T02:43:21;22.70;53.20
75161;DHT22;67232;50.096;8.716;2023-07-13T02:45:49;22.70;53.40
75161;DHT22;67232;50.096;8.716;2023-07-13T02:48:15;22.70;53.60
75161;DHT22;67232;50.096;8.716;2023-07-13T02:50:40;22.70;53.00
75161;DHT22;67232;50.096;8.716;2023-07-13T02:53:06;22.60;52.90
75161;DHT22;67232;50.096;8.716;2023-07-13T02:55:31;22.60;53.30
75161;DHT22;67232;50.096;8.716;2023-07-13T02:57:59;22.60;52.90
75161;DHT22;67232;50.096;8.716;2023-07-13T03:00:25;22.60;52.90
75161;DHT22;67232;50.096;8.716;2023-07-13T03:02:50;22.60;52.70
75161;DHT22;67232;50.096;8.716;2023-07-13T03:05:16;22.60;52.80
75161;DHT22;67232;50.096;8.716;2023-07-13T03:07:42;22.60;52.70
75161;DHT22;67232;50.096;8.716;2023-07-13T03:10:10;22.60;52.80
75161;DHT22;67232;50.096;8.716;2023-07-13T03:12:37;22.60;52.70
75161;DHT22;67232;50.096;8.716;2023-07-13T03:15:03;22.60;52.80
75161;DHT22;67232;50.096;8.716;2023-07-13T03:17:29;22.60;53.10
75161;DHT22;67232;50.096;8.716;2023-07-13T03:19:54;22.60;53.10
75161;DHT22;67232;50.096;8.716;2023-07-13T03:22:20;22.60;52.40
75161;DHT22;67232;50.096;8.716;2023-07-13T03:24:46;22.50;52.50
75161;DHT22;67232;50.096;8.716;2023-07-13T03:27:13;22.50;52.50
75161;DHT22;67232;50.096;8.716;2023-07-13T03:29:38;22.50;52.60
75161;DHT22;67232;50.096;8.716;2023-07-13T03:32:04;22.40;53.00
75161;DHT22;67232;50.096;8.716;2023-07-13T03:34:30;22.30;53.10
75161;DHT22;67232;50.096;8.716;2023-07-13T03:36:56;22.40;53.10
75161;DHT22;67232;50.096;8.716;2023-07-13T03:39:21;22.30;52.90
75161;DHT22;67232;50.096;8.716;2023-07-13T03:41:47;22.20;53.10
75161;DHT22;67232;50.096;8.716;2023-07-13T03:44:12;22.20;53.50
75161;DHT22;67232;50.096;8.716;2023-07-13T03:46:40;22.20;53.50
75161;DHT22;67232;50.096;8.716;2023-07-13T03:49:05;22.20;53.70
75161;DHT22;67232;50.096;8.716;2023-07-13T03:51:31;22.10;53.60
75161;DHT22;67232;50.096;8.716;2023-07-13T03:53:59;22.10;53.70
75161;DHT22;67232;50.096;8.716;2023-07-13T03:56:27;22.10;53.60
75161;DHT22;67232;50.096;8.716;2023-07-13T03:58:53;22.10;53.70
75161;DHT22;67232;50.096;8.716;2023-07-13T04:01:20;22.00;53.80
75161;DHT22;67232;50.096;8.716;2023-07-13T04:03:46;22.00;53.90
75161;DHT22;67232;50.096;8.716;2023-07-13T04:06:22;21.80;54.20
75161;DHT22;67232;50.096;8.716;2023-07-13T04:08:50;21.90;54.60
75161;DHT22;67232;50.096;8.716;2023-07-13T04:11:18;21.80;54.80
75161;DHT22;67232;50.096;8.716;2023-07-13T04:13:44;21.90;54.60
75161;DHT22;67232;50.096;8.716;2023-07-13T04:16:13;22.00;54.90
75161;DHT22;67232;50.096;8.716;2023-07-13T04:18:41;22.00;54.40
75161;DHT22;67232;50.096;8.716;2023-07-13T04:21:08;22.10;54.60
75161;DHT22;67232;50.096;8.716;2023-07-13T04:23:39;22.10;54.80
75161;DHT22;67232;50.096;8.716;2023-07-13T04:26:07;22.20;54.60
75161;DHT22;67232;50.096;8.716;2023-07-13T04:28:35;22.20;54.60
75161;DHT22;67232;50.096;8.716;2023-07-13T04:31:01;22.30;54.60
75161;DHT22;67232;50.096;8.716;2023-07-13T04:33:29;22.30;54.70
75161;DHT22;67232;50.096;8.716;2023-07-13T04:35:55;22.30;54.40
75161;DHT22;67232;50.096;8.716;2023-07-13T04:38:27;22.30;54.70
75161;DHT22;67232;50.096;8.716;2023-07-13T04:40:59;22.30;54.90
75161;DHT22;67232;50.096;8.716;2023-07-13T04:43:26;22.30;54.80
75161;DHT22;67232;50.096;8.716;2023-07-13T04:45:53;22.40;54.20
75161;DHT22;67232;50.096;8.716;2023-07-13T04:48:22;22.40;55.00
75161;DHT22;67232;50.096;8.716;2023-07-13T04:50:48;22.50;55.20
75161;DHT22;67232;50.096;8.716;2023-07-13T04:53:19;22.50;55.20
75161;DHT22;67232;50.096;8.716;2023-07-13T04:55:47;22.50;55.10
75161;DHT22;67232;50.096;8.716;2023-07-13T04:58:12;22.50;55.00
75161;DHT22;67232;50.096;8.716;2023-07-13T05:00:38;22.60;54.70
75161;DHT22;67232;50.096;8.716;2023-07-13T05:03:07;22.60;54.80
75161;DHT22;67232;50.096;8.716;2023-07-13T05:05:32;22.70;55.10
75161;DHT22;67232;50.096;8.716;2023-07-13T05:07:59;22.80;54.60
75161;DHT22;67232;50.096;8.716;2023-07-13T05:10:24;22.80;54.50
75161;DHT22;67232;50.096;8.716;2023-07-13T05:12:53;22.80;54.70
75161;DHT22;67232;50.096;8.716;2023-07-13T05:15:21;22.90;53.80
75161;DHT22;67232;50.096;8.716;2023-07-13T05:17:50;22.90;54.40
75161;DHT22;67232;50.096;8.716;2023-07-13T05:20:17;22.90;54.50
75161;DHT22;67232;50.096;8.716;2023-07-13T05:22:46;23.00;53.70
75161;DHT22;67232;50.096;8.716;2023-07-13T05:25:14;23.00;54.60
75161;DHT22;67232;50.096;8.716;2023-07-13T05:27:42;23.10;53.50
75161;DHT22;67232;50.096;8.716;2023-07-13T05:30:08;23.10;53.80
75161;DHT22;67232;50.096;8.716;2023-07-13T05:32:36;23.20;53.30
75161;DHT22;67232;50.096;8.716;2023-07-13T05:35:04;23.20;52.90
75161;DHT22;67232;50.096;8.716;2023-07-13T05:37:30;23.20;52.60
75161;DHT22;67232;50.096;8.716;2023-07-13T05:39:58;23.20;53.20
75161;DHT22;67232;50.096;8.716;2023-07-13T05:42:24;23.20;52.90
75161;DHT22;67232;50.096;8.716;2023-07-13T05:44:52;23.20;53.40
75161;DHT22;67232;50.096;8.716;2023-07-13T05:47:20;23.20;53.00
75161;DHT22;67232;50.096;8.716;2023-07-13T05:49:46;23.20;52.20
75161;DHT22;67232;50.096;8.716;2023-07-13T05:52:11;23.20;52.10
75161;DHT22;67232;50.096;8.716;2023-07-13T05:54:37;23.20;52.80
75161;DHT22;67232;50.096;8.716;2023-07-13T05:57:02;23.20;53.00
75161;DHT22;67232;50.096;8.716;2023-07-13T05:59:30;23.40;52.40
75161;DHT22;67232;50.096;8.716;2023-07-13T06:01:58;23.40;52.20
75161;DHT22;67232;50.096;8.716;2023-07-13T06:04:24;23.40;51.90
75161;DHT22;67232;50.096;8.716;2023-07-13T06:06:52;23.40;51.80
75161;DHT22;67232;50.096;8.716;2023-07-13T06:09:18;23.40;51.90
75161;DHT22;67232;50.096;8.716;2023-07-13T06:11:46;23.40;52.00
75161;DHT22;67232;50.096;8.716;2023-07-13T06:14:11;23.40;51.70
75161;DHT22;67232;50.096;8.716;2023-07-13T06:16:37;23.60;51.30
75161;DHT22;67232;50.096;8.716;2023-07-13T06:19:07;23.60;50.50
75161;DHT22;67232;50.096;8.716;2023-07-13T06:21:32;23.70;49.70
75161;DHT22;67232;50.096;8.716;2023-07-13T06:23:58;23.70;50.30
75161;DHT22;67232;50.096;8.716;2023-07-13T06:26:26;23.80;49.90
75161;DHT22;67232;50.096;8.716;2023-07-13T06:28:52;23.70;50.10
75161;DHT22;67232;50.096;8.716;2023-07-13T06:31:18;23.80;49.70
75161;DHT22;67232;50.096;8.716;2023-07-13T06:33:44;23.90;50.00
75161;DHT22;67232;50.096;8.716;2023-07-13T06:36:12;23.90;50.00
75161;DHT22;67232;50.096;8.716;2023-07-13T06:38:38;24.00;49.80
75161;DHT22;67232;50.096;8.716;2023-07-13T06:41:05;24.10;49.40
75161;DHT22;67232;50.096;8.716;2023-07-13T06:43:31;24.10;48.90
75161;DHT22;67232;50.096;8.716;2023-07-13T06:46:01;24.30;49.10
75161;DHT22;67232;50.096;8.716;2023-07-13T06:48:29;24.20;49.30
75161;DHT22;67232;50.096;8.716;2023-07-13T06:50:58;24.20;49.20
75161;DHT22;67232;50.096;8.716;2023-07-13T06:53:26;24.40;48.80
75161;DHT22;67232;50.096;8.716;2023-07-13T06:55:54;24.50;48.40
75161;DHT22;67232;50.096;8.716;2023-07-13T06:58:22;24.50;48.10
75161;DHT22;67232;50.096;8.716;2023-07-13T07:00:52;24.50;48.40
75161;DHT22;67232;50.096;8.716;2023-07-13T07:03:18;24.60;48.70
75161;DHT22;67232;50.096;8.716;2023-07-13T07:05:43;24.60;49.10
75161;DHT22;67232;50.096;8.716;2023-07-13T07:08:09;24.60;48.60
75161;DHT22;67232;50.096;8.716;2023-07-13T07:10:37;24.70;48.60
75161;DHT22;67232;50.096;8.716;2023-07-13T07:13:06;24.80;48.40
75161;DHT22;67232;50.096;8.716;2023-07-13T07:15:31;24.90;48.40
75161;DHT22;67232;50.096;8.716;2023-07-13T07:17:57;24.90;48.00
75161;DHT22;67232;50.096;8.716;2023-07-13T07:20:22;25.00;47.50
75161;DHT22;67232;50.096;8.716;2023-07-13T07:22:52;25.10;47.70
75161;DHT22;67232;50.096;8.716;2023-07-13T07:25:19;25.20;47.60
75161;DHT22;67232;50.096;8.716;2023-07-13T07:27:45;25.20;47.20
75161;DHT22;67232;50.096;8.716;2023-07-13T07:30:11;25.30;46.90
75161;DHT22;67232;50.096;8.716;2023-07-13T07:32:40;25.20;47.60
75161;DHT22;67232;50.096;8.716;2023-07-13T07:35:07;25.20;47.20
75161;DHT22;67232;50.096;8.716;2023-07-13T07:37:35;25.40;47.20
75161;DHT22;67232;50.096;8.716;2023-07-13T07:40:03;25.40;46.80
75161;DHT22;67232;50.096;8.716;2023-07-13T07:42:34;25.30;47.10
75161;DHT22;67232;50.096;8.716;2023-07-13T07:45:02;25.40;47.20
75161;DHT22;67232;50.096;8.716;2023-07-13T07:47:27;25.30;46.80
75161;DHT22;67232;50.096;8.716;2023-07-13T07:49:53;25.40;46.70
75161;DHT22;67232;50.096;8.716;2023-07-13T07:52:19;25.50;46.60
75161;DHT22;67232;50.096;8.716;2023-07-13T07:54:44;25.60;46.30
75161;DHT22;67232;50.096;8.716;2023-07-13T07:57:10;25.70;45.90
75161;DHT22;67232;50.096;8.716;2023-07-13T07:59:36;25.70;45.40
75161;DHT22;67232;50.096;8.716;2023-07-13T08:02:09;25.80;45.70
75161;DHT22;67232;50.096;8.716;2023-07-13T08:04:38;25.80;45.80
75161;DHT22;67232;50.096;8.716;2023-07-13T08:07:03;25.80;46.10
75161;DHT22;67232;50.096;8.716;2023-07-13T08:09:29;25.90;46.50
75161;DHT22;67232;50.096;8.716;2023-07-13T08:11:55;25.90;45.60
75161;DHT22;67232;50.096;8.716;2023-07-13T08:14:23;26.00;45.00
75161;DHT22;67232;50.096;8.716;2023-07-13T08:16:51;25.90;44.80
75161;DHT22;67232;50.096;8.716;2023-07-13T08:19:19;26.00;45.00
75161;DHT22;67232;50.096;8.716;2023-07-13T08:21:47;26.00;45.10
75161;DHT22;67232;50.096;8.716;2023-07-13T08:24:14;26.10;45.10
75161;DHT22;67232;50.096;8.716;2023-07-13T08:26:40;26.20;44.90
75161;DHT22;67232;50.096;8.716;2023-07-13T08:29:08;26.30;44.00
75161;DHT22;67232;50.096;8.716;2023-07-13T08:31:33;26.30;43.90
75161;DHT22;67232;50.096;8.716;2023-07-13T08:34:01;26.30;43.70
75161;DHT22;67232;50.096;8.716;2023-07-13T08:36:29;26.30;43.40
75161;DHT22;67232;50.096;8.716;2023-07-13T08:38:57;26.40;43.20
75161;DHT22;67232;50.096;8.716;2023-07-13T08:41:22;26.40;42.80
75161;DHT22;67232;50.096;8.716;2023-07-13T08:43:51;26.30;42.80
75161;DHT22;67232;50.096;8.716;2023-07-13T08:46:25;26.20;43.90
75161;DHT22;67232;50.096;8.716;2023-07-13T08:49:19;26.10;44.70
75161;DHT22;67232;50.096;8.716;2023-07-13T08:51:57;26.20;43.80
75161;DHT22;67232;50.096;8.716;2023-07-13T08:54:38;26.40;42.40
75161;DHT22;67232;50.096;8.716;2023-07-13T08:57:17;26.60;42.40
75161;DHT22;67232;50.096;8.716;2023-07-13T08:59:47;26.50;42.90
75161;DHT22;67232;50.096;8.716;2023-07-13T09:02:26;26.60;42.00
75161;DHT22;67232;50.096;8.716;2023-07-13T09:05:00;26.80;42.30
75161;DHT22;67232;50.096;8.716;2023-07-13T09:07:47;26.90;40.90
75161;DHT22;67232;50.096;8.716;2023-07-13T09:10:35;27.00;41.00
75161;DHT22;67232;50.096;8.716;2023-07-13T09:15:44;27.40;40.10
75161;DHT22;67232;50.096;8.716;2023-07-13T09:20:57;27.50;39.80
75161;DHT22;67232;50.096;8.716;2023-07-13T09:23:27;27.40;40.00
75161;DHT22;67232;50.096;8.716;2023-07-13T09:26:00;27.40;39.60
75161;DHT22;67232;50.096;8.716;2023-07-13T09:28:37;27.30;39.30
75161;DHT22;67232;50.096;8.716;2023-07-13T09:31:11;27.30;39.70
75161;DHT22;67232;50.096;8.716;2023-07-13T09:33:39;27.40;40.00
75161;DHT22;67232;50.096;8.716;2023-07-13T09:36:19;27.50;40.00
75161;DHT22;67232;50.096;8.716;2023-07-13T09:46:56;27.70;40.00
75161;DHT22;67232;50.096;8.716;2023-07-13T09:49:32;27.80;39.80
75161;DHT22;67232;50.096;8.716;2023-07-13T09:52:04;27.90;39.40
75161;DHT22;67232;50.096;8.716;2023-07-13T09:54:36;27.80;39.50
75161;DHT22;67232;50.096;8.716;2023-07-13T09:57:16;27.90;39.70
75161;DHT22;67232;50.096;8.716;2023-07-13T09:59:48;28.00;39.20
75161;DHT22;67232;50.096;8.716;2023-07-13T10:02:33;27.90;39.30
75161;DHT22;67232;50.096;8.716;2023-07-13T10:05:05;28.00;39.10
75161;DHT22;67232;50.096;8.716;2023-07-13T10:07:32;28.10;39.10
75161;DHT22;67232;50.096;8.716;2023-07-13T10:10:00;28.10;39.50
75161;DHT22;67232;50.096;8.716;2023-07-13T10:12:29;28.30;39.30
75161;DHT22;67232;50.096;8.716;2023-07-13T10:14:58;28.40;39.10
75161;DHT22;67232;50.096;8.716;2023-07-13T10:17:31;28.50;38.80
75161;DHT22;67232;50.096;8.716;2023-07-13T10:20:02;28.50;38.90
75161;DHT22;67232;50.096;8.716;2023-07-13T10:23:04;28.50;38.70
75161;DHT22;67232;50.096;8.716;2023-07-13T10:25:39;28.40;38.40
75161;DHT22;67232;50.096;8.716;2023-07-13T10:30:58;28.30;38.70
75161;DHT22;67232;50.096;8.716;2023-07-13T10:33:28;28.40;38.70
75161;DHT22;67232;50.096;8.716;2023-07-13T10:36:21;28.50;39.00
75161;DHT22;67232;50.096;8.716;2023-07-13T10:38:50;28.60;38.80
75161;DHT22;67232;50.096;8.716;2023-07-13T10:41:21;28.60;38.80
75161;DHT22;67232;50.096;8.716;2023-07-13T10:43:53;28.80;38.60
75161;DHT22;67232;50.096;8.716;2023-07-13T10:46:22;28.80;38.90
75161;DHT22;67232;50.096;8.716;2023-07-13T10:48:54;28.80;39.30
75161;DHT22;67232;50.096;8.716;2023-07-13T10:51:25;28.80;39.00
75161;DHT22;67232;50.096;8.716;2023-07-13T10:57:15;29.00;38.00
75161;DHT22;67232;50.096;8.716;2023-07-13T10:59:45;29.00;37.60
75161;DHT22;67232;50.096;8.716;2023-07-13T11:02:26;29.00;39.20
75161;DHT22;67232;50.096;8.716;2023-07-13T11:04:54;29.00;37.80
75161;DHT22;67232;50.096;8.716;2023-07-13T11:09:59;29.10;38.20
75161;DHT22;67232;50.096;8.716;2023-07-13T11:12:27;29.10;37.70
75161;DHT22;67232;50.096;8.716;2023-07-13T11:20:23;29.20;37.50
75161;DHT22;67232;50.096;8.716;2023-07-13T11:25:37;29.20;36.90
75161;DHT22;67232;50.096;8.716;2023-07-13T11:33:16;29.40;36.70
75161;DHT22;67232;50.096;8.716;2023-07-13T11:40:54;29.00;36.70
75161;DHT22;67232;50.096;8.716;2023-07-13T11:43:21;29.00;36.90
75161;DHT22;67232;50.096;8.716;2023-07-13T11:45:49;29.00;36.60
75161;DHT22;67232;50.096;8.716;2023-07-13T11:48:26;29.00;36.80
75161;DHT22;67232;50.096;8.716;2023-07-13T11:50:59;29.00;36.10
75161;DHT22;67232;50.096;8.716;2023-07-13T11:53:28;29.00;36.20
75161;DHT22;67232;50.096;8.716;2023-07-13T11:55:53;28.90;37.10
75161;DHT22;67232;50.096;8.716;2023-07-13T11:58:25;28.90;37.00
75161;DHT22;67232;50.096;8.716;2023-07-13T12:00:51;28.80;37.30
75161;DHT22;67232;50.096;8.716;2023-07-13T12:03:23;28.70;37.40
75161;DHT22;67232;50.096;8.716;2023-07-13T12:06:01;28.60;37.10
75161;DHT22;67232;50.096;8.716;2023-07-13T12:08:28;28.60;37.30
75161;DHT22;67232;50.096;8.716;2023-07-13T12:11:00;28.50;37.20
75161;DHT22;67232;50.096;8.716;2023-07-13T12:13:36;28.40;37.10
75161;DHT22;67232;50.096;8.716;2023-07-13T12:16:02;28.30;37.70
75161;DHT22;67232;50.096;8.716;2023-07-13T12:18:33;28.30;37.40
75161;DHT22;67232;50.096;8.716;2023-07-13T12:21:13;28.30;37.50
75161;DHT22;67232;50.096;8.716;2023-07-13T12:23:43;28.40;37.50
75161;DHT22;67232;50.096;8.716;2023-07-13T12:26:12;28.40;37.50
75161;DHT22;67232;50.096;8.716;2023-07-13T12:28:49;28.50;37.20
75161;DHT22;67232;50.096;8.716;2023-07-13T12:31:25;28.50;37.40
75161;DHT22;67232;50.096;8.716;2023-07-13T12:36:29;28.60;36.90
75161;DHT22;67232;50.096;8.716;2023-07-13T12:39:03;28.40;37.20
75161;DHT22;67232;50.096;8.716;2023-07-13T12:41:30;28.30;37.10
75161;DHT22;67232;50.096;8.716;2023-07-13T12:43:55;28.40;37.50
75161;DHT22;67232;50.096;8.716;2023-07-13T12:46:24;28.40;37.00
75161;DHT22;67232;50.096;8.716;2023-07-13T12:48:52;28.40;37.10
75161;DHT22;67232;50.096;8.716;2023-07-13T12:51:22;28.30;37.00
75161;DHT22;67232;50.096;8.716;2023-07-13T12:53:59;28.40;37.70
75161;DHT22;67232;50.096;8.716;2023-07-13T12:56:33;28.60;37.50
75161;DHT22;67232;50.096;8.716;2023-07-13T12:59:03;28.80;37.40
75161;DHT22;67232;50.096;8.716;2023-07-13T13:01:31;28.80;37.40
75161;DHT22;67232;50.096;8.716;2023-07-13T13:04:03;28.90;37.50
75161;DHT22;67232;50.096;8.716;2023-07-13T13:06:34;28.80;37.40
75161;DHT22;67232;50.096;8.716;2023-07-13T13:09:05;28.80;37.40
75161;DHT22;67232;50.096;8.716;2023-07-13T13:11:34;28.70;37.50
75161;DHT22;67232;50.096;8.716;2023-07-13T13:14:00;28.80;37.50
75161;DHT22;67232;50.096;8.716;2023-07-13T13:18:55;28.80;37.70
75161;DHT22;67232;50.096;8.716;2023-07-13T13:21:29;28.80;37.50
75161;DHT22;67232;50.096;8.716;2023-07-13T13:23:55;28.80;37.90
75161;DHT22;67232;50.096;8.716;2023-07-13T13:26:22;28.80;37.60
75161;DHT22;67232;50.096;8.716;2023-07-13T13:28:48;28.80;37.90
75161;DHT22;67232;50.096;8.716;2023-07-13T13:31:14;28.80;37.80
75161;DHT22;67232;50.096;8.716;2023-07-13T13:33:45;28.70;37.90
75161;DHT22;67232;50.096;8.716;2023-07-13T13:36:18;28.40;37.50
75161;DHT22;67232;50.096;8.716;2023-07-13T13:38:44;28.20;38.20
75161;DHT22;67232;50.096;8.716;2023-07-13T13:41:12;28.30;38.70
75161;DHT22;67232;50.096;8.716;2023-07-13T13:43:42;28.30;37.80
75161;DHT22;67232;50.096;8.716;2023-07-13T13:46:20;28.30;38.30
75161;DHT22;67232;50.096;8.716;2023-07-13T13:48:48;28.40;37.80
75161;DHT22;67232;50.096;8.716;2023-07-13T13:51:21;28.30;38.10
75161;DHT22;67232;50.096;8.716;2023-07-13T13:53:51;28.40;38.50
75161;DHT22;67232;50.096;8.716;2023-07-13T13:56:19;28.40;37.90
75161;DHT22;67232;50.096;8.716;2023-07-13T13:58:44;28.50;37.80
75161;DHT22;67232;50.096;8.716;2023-07-13T14:01:17;28.60;38.50
75161;DHT22;67232;50.096;8.716;2023-07-13T14:03:46;28.50;37.80
75161;DHT22;67232;50.096;8.716;2023-07-13T14:06:14;28.50;38.40
75161;DHT22;67232;50.096;8.716;2023-07-13T14:08:45;28.30;38.50
75161;DHT22;67232;50.096;8.716;2023-07-13T14:11:15;28.40;38.90
75161;DHT22;67232;50.096;8.716;2023-07-13T14:13:56;28.40;38.70
75161;DHT22;67232;50.096;8.716;2023-07-13T14:16:29;28.40;38.90
75161;DHT22;67232;50.096;8.716;2023-07-13T14:18:57;28.40;38.90
75161;DHT22;67232;50.096;8.716;2023-07-13T14:21:26;28.40;38.50
75161;DHT22;67232;50.096;8.716;2023-07-13T14:23:52;28.40;38.80
75161;DHT22;67232;50.096;8.716;2023-07-13T14:26:25;28.50;38.50
75161;DHT22;67232;50.096;8.716;2023-07-13T14:28:56;28.40;38.40
75161;DHT22;67232;50.096;8.716;2023-07-13T14:31:23;28.40;38.20
75161;DHT22;67232;50.096;8.716;2023-07-13T14:33:49;28.50;38.40
75161;DHT22;67232;50.096;8.716;2023-07-13T14:36:36;28.50;38.00
75161;DHT22;67232;50.096;8.716;2023-07-13T14:41:37;28.30;38.50
75161;DHT22;67232;50.096;8.716;2023-07-13T14:44:12;28.20;38.80
75161;DHT22;67232;50.096;8.716;2023-07-13T14:46:38;28.20;39.00
75161;DHT22;67232;50.096;8.716;2023-07-13T14:49:11;28.10;39.20
75161;DHT22;67232;50.096;8.716;2023-07-13T14:51:38;28.00;39.10
75161;DHT22;67232;50.096;8.716;2023-07-13T14:54:05;27.90;39.00
75161;DHT22;67232;50.096;8.716;2023-07-13T14:56:33;27.90;39.00
75161;DHT22;67232;50.096;8.716;2023-07-13T14:58:58;27.70;39.20
75161;DHT22;67232;50.096;8.716;2023-07-13T15:01:24;27.70;39.40
75161;DHT22;67232;50.096;8.716;2023-07-13T15:03:52;27.80;39.40
75161;DHT22;67232;50.096;8.716;2023-07-13T15:06:21;27.80;39.30
75161;DHT22;67232;50.096;8.716;2023-07-13T15:08:46;27.80;39.00
75161;DHT22;67232;50.096;8.716;2023-07-13T15:11:16;27.80;39.00
75161;DHT22;67232;50.096;8.716;2023-07-13T15:13:42;27.80;39.20
75161;DHT22;67232;50.096;8.716;2023-07-13T15:16:21;27.80;39.60
75161;DHT22;67232;50.096;8.716;2023-07-13T15:18:47;27.80;39.50
75161;DHT22;67232;50.096;8.716;2023-07-13T15:21:20;27.80;39.20
75161;DHT22;67232;50.096;8.716;2023-07-13T15:23:46;27.70;39.10
75161;DHT22;67232;50.096;8.716;2023-07-13T15:26:16;27.70;39.30
75161;DHT22;67232;50.096;8.716;2023-07-13T15:28:45;27.70;39.20
75161;DHT22;67232;50.096;8.716;2023-07-13T15:33:51;27.70;39.30
75161;DHT22;67232;50.096;8.716;2023-07-13T15:36:18;27.70;39.00
75161;DHT22;67232;50.096;8.716;2023-07-13T15:38:45;27.80;39.00
75161;DHT22;67232;50.096;8.716;2023-07-13T15:41:20;27.70;39.10
75161;DHT22;67232;50.096;8.716;2023-07-13T15:43:52;27.70;39.10
75161;DHT22;67232;50.096;8.716;2023-07-13T15:46:19;27.70;39.40
75161;DHT22;67232;50.096;8.716;2023-07-13T15:48:49;27.70;39.10
75161;DHT22;67232;50.096;8.716;2023-07-13T15:51:34;27.70;39.40
75161;DHT22;67232;50.096;8.716;2023-07-13T15:54:02;27.70;39.00
75161;DHT22;67232;50.096;8.716;2023-07-13T15:56:35;27.60;39.00
75161;DHT22;67232;50.096;8.716;2023-07-13T15:59:05;27.50;39.00
75161;DHT22;67232;50.096;8.716;2023-07-13T16:01:33;27.50;39.20
75161;DHT22;67232;50.096;8.716;2023-07-13T16:03:59;27.50;39.30
75161;DHT22;67232;50.096;8.716;2023-07-13T16:06:36;27.40;39.30
75161;DHT22;67232;50.096;8.716;2023-07-13T16:09:03;27.40;39.30
75161;DHT22;67232;50.096;8.716;2023-07-13T16:11:37;27.40;39.20
75161;DHT22;67232;50.096;8.716;2023-07-13T16:14:03;27.50;39.20
75161;DHT22;67232;50.096;8.716;2023-07-13T16:16:31;27.40;39.00
75161;DHT22;67232;50.096;8.716;2023-07-13T16:19:01;27.40;39.40
75161;DHT22;67232;50.096;8.716;2023-07-13T16:21:36;27.50;39.70
75161;DHT22;67232;50.096;8.716;2023-07-13T16:24:18;27.40;39.10
75161;DHT22;67232;50.096;8.716;2023-07-13T16:26:45;27.50;38.80
75161;DHT22;67232;50.096;8.716;2023-07-13T16:29:20;27.40;38.90
75161;DHT22;67232;50.096;8.716;2023-07-13T16:31:56;27.50;38.70